Time;durP1;ratioP1;P1;durP2;ratioP2;P2;SDS_P1;SDS_P2;PMS_P1;PMS_P2;Temp;Humidity;BMP_temperature;BMP_pressure;BME280_temperature;BME280_humidity;BME280_pressure;Samples;Min_cycle;Max_cycle;Signal;HPM_P1;HPM_P2
2022/04/19 00:00:42;;;;;;;;;;;12.70;53.60;;;;;;2077608;28;20443;-91
2022/04/19 00:01:43;;;;;;;;;;;12.70;53.60;;;;;;2086518;28;19921;-90
2022/04/19 00:02:43;;;;;;;;;;;12.70;53.60;;;;;;2090506;28;19952;-90
2022/04/19 00:03:44;;;;;;;;;;;12.70;53.70;;;;;;2093227;28;19912;-90
2022/04/19 00:04:45;;;;;;;;;;;12.70;53.70;;;;;;2094966;28;20361;-90
2022/04/19 00:05:46;;;;;;;;;;;12.70;53.70;;;;;;2095636;28;19920;-90
2022/04/19 00:06:46;;;;;;;;;;;12.70;53.80;;;;;;2098767;28;19908;-90
2022/04/19 00:07:47;;;;;;;;;;;12.70;53.80;;;;;;2088090;28;19917;-91
2022/04/19 00:08:50;;;;;;;;;;;12.60;53.70;;;;;;2094349;28;19908;-90
2022/04/19 00:09:50;;;;;;;;;;;12.60;53.70;;;;;;2097453;28;20216;-90
2022/04/19 00:10:51;;;;;;;;;;;12.60;53.80;;;;;;2089587;28;19917;-90
2022/04/19 00:11:51;;;;;;;;;;;12.60;53.80;;;;;;2083788;28;19918;-90
2022/04/19 00:12:52;;;;;;;;;;;12.60;53.80;;;;;;2086659;28;19921;-90
2022/04/19 00:13:52;;;;;;;;;;;12.60;53.90;;;;;;2081723;28;19917;-90
2022/04/19 00:14:53;;;;;;;;;;;12.50;53.80;;;;;;2073878;28;20368;-89
2022/04/19 00:15:55;;;;;;;;;;;12.50;53.90;;;;;;2084671;28;19952;-90
2022/04/19 00:16:55;;;;;;;;;;;12.50;53.90;;;;;;2091117;28;19917;-90
2022/04/19 00:17:57;;;;;;;;;;;12.50;54.00;;;;;;2096817;28;19916;-90
2022/04/19 00:18:57;;;;;;;;;;;12.50;54.00;;;;;;2091391;28;19916;-90
2022/04/19 00:19:58;;;;;;;;;;;12.50;54.00;;;;;;2092189;28;20401;-90
2022/04/19 00:20:59;;;;;;;;;;;12.50;54.00;;;;;;2095078;28;19917;-91
2022/04/19 00:22:00;;;;;;;;;;;12.40;54.00;;;;;;2083079;28;19914;-90
2022/04/19 00:23:03;;;;;;;;;;;12.50;54.00;;;;;;2094735;28;20012;-90
2022/04/19 00:24:03;;;;;;;;;;;12.40;54.00;;;;;;2092520;28;19975;-90
2022/04/19 00:25:06;;;;;;;;;;;12.40;54.00;;;;;;2099052;28;19929;-90
2022/04/19 00:26:06;;;;;;;;;;;12.40;54.00;;;;;;2099205;28;19913;-90
2022/04/19 00:27:07;;;;;;;;;;;12.40;54.00;;;;;;2090629;28;20512;-90
2022/04/19 00:28:08;;;;;;;;;;;12.30;54.00;;;;;;2087138;28;19917;-90
2022/04/19 00:29:08;;;;;;;;;;;12.40;54.10;;;;;;2087029;28;19984;-90
2022/04/19 00:30:09;;;;;;;;;;;12.30;54.00;;;;;;2096150;28;20287;-91
2022/04/19 00:31:11;;;;;;;;;;;12.30;54.00;;;;;;2096036;28;20354;-90
2022/04/19 00:32:12;;;;;;;;;;;12.30;54.10;;;;;;2098672;28;19998;-91
2022/04/19 00:33:12;;;;;;;;;;;12.30;54.10;;;;;;2092973;28;19920;-89
2022/04/19 00:34:13;;;;;;;;;;;12.30;54.10;;;;;;2085021;28;20138;-90
2022/04/19 00:35:13;;;;;;;;;;;12.20;54.10;;;;;;2088942;28;19956;-90
2022/04/19 00:36:14;;;;;;;;;;;12.30;54.20;;;;;;2081489;28;19947;-90
2022/04/19 00:37:14;;;;;;;;;;;12.30;54.20;;;;;;2081259;28;20339;-89
2022/04/19 00:38:15;;;;;;;;;;;12.20;54.10;;;;;;2093521;28;19928;-90
2022/04/19 00:39:15;;;;;;;;;;;12.20;54.10;;;;;;2092840;28;20314;-90
2022/04/19 00:40:16;;;;;;;;;;;12.20;54.10;;;;;;2097373;28;19959;-90
2022/04/19 00:41:17;;;;;;;;;;;12.20;54.10;;;;;;2096666;28;19952;-89
2022/04/19 00:42:17;;;;;;;;;;;12.20;54.10;;;;;;2093325;28;19939;-90
2022/04/19 00:43:18;;;;;;;;;;;12.20;54.10;;;;;;2103499;28;19924;-89
2022/04/19 00:44:19;;;;;;;;;;;12.20;54.10;;;;;;2095645;28;20399;-90
2022/04/19 00:45:20;;;;;;;;;;;12.20;54.10;;;;;;2085418;28;19975;-91
2022/04/19 00:46:22;;;;;;;;;;;12.20;54.10;;;;;;2086359;28;19925;-90
2022/04/19 00:47:22;;;;;;;;;;;12.20;54.10;;;;;;2091930;28;20394;-90
2022/04/19 00:48:23;;;;;;;;;;;12.20;54.10;;;;;;2090051;28;20007;-90
2022/04/19 00:49:23;;;;;;;;;;;12.20;54.00;;;;;;2075799;28;19925;-89
2022/04/19 00:50:24;;;;;;;;;;;12.20;54.00;;;;;;2081343;28;19924;-89
2022/04/19 00:51:24;;;;;;;;;;;12.20;54.00;;;;;;2091231;28;20306;-90
2022/04/19 00:52:25;;;;;;;;;;;12.20;54.00;;;;;;2088221;28;19988;-89
2022/04/19 00:53:26;;;;;;;;;;;12.20;54.00;;;;;;2095603;28;20003;-91
2022/04/19 00:54:27;;;;;;;;;;;12.20;54.00;;;;;;2095153;28;19966;-90
2022/04/19 00:55:28;;;;;;;;;;;12.20;54.00;;;;;;2095861;28;19917;-90
2022/04/19 00:56:29;;;;;;;;;;;12.20;54.00;;;;;;2097940;28;19917;-90
2022/04/19 00:57:29;;;;;;;;;;;12.20;54.10;;;;;;2098033;28;19982;-90
2022/04/19 00:58:30;;;;;;;;;;;12.20;54.20;;;;;;2090835;28;19931;-90
2022/04/19 00:59:32;;;;;;;;;;;12.10;54.10;;;;;;2088031;28;19921;-90
2022/04/19 01:00:33;;;;;;;;;;;12.10;54.20;;;;;;2081738;28;19913;-89
2022/04/19 01:01:36;;;;;;;;;;;12.10;54.20;;;;;;2077505;28;20301;-90
2022/04/19 01:02:37;;;;;;;;;;;12.10;54.30;;;;;;2096952;28;20357;-90
2022/04/19 01:03:37;;;;;;;;;;;12.10;54.30;;;;;;2092482;28;19916;-90
2022/04/19 01:04:38;;;;;;;;;;;12.10;54.30;;;;;;2083750;28;19970;-89
2022/04/19 01:05:38;;;;;;;;;;;12.00;54.30;;;;;;2087183;28;19921;-90
2022/04/19 01:06:39;;;;;;;;;;;12.10;54.40;;;;;;2092202;28;19943;-90
2022/04/19 01:07:40;;;;;;;;;;;12.00;54.30;;;;;;2076222;28;20376;-90
2022/04/19 01:08:44;;;;;;;;;;;12.00;54.40;;;;;;2086975;28;19946;-90
2022/04/19 01:09:45;;;;;;;;;;;12.00;54.40;;;;;;2093654;28;20371;-90
2022/04/19 01:10:45;;;;;;;;;;;12.00;54.50;;;;;;2092785;28;19913;-90
2022/04/19 01:13:17;;;;;;;;;;;11.90;55.00;;;;;;2094546;28;19916;-90
2022/04/19 01:14:18;;;;;;;;;;;11.90;54.40;;;;;;2096213;28;19917;-89
2022/04/19 01:15:19;;;;;;;;;;;11.90;54.50;;;;;;2090994;28;20015;-89
2022/04/19 01:16:19;;;;;;;;;;;11.90;54.50;;;;;;2092871;28;19920;-89
2022/04/19 01:17:20;;;;;;;;;;;11.80;54.50;;;;;;2097575;28;19916;-90
2022/04/19 01:18:22;;;;;;;;;;;11.80;54.60;;;;;;2090306;28;19920;-90
2022/04/19 01:19:23;;;;;;;;;;;11.80;54.70;;;;;;2097538;28;19913;-90
2022/04/19 01:20:24;;;;;;;;;;;11.80;54.70;;;;;;2094190;28;19958;-89
2022/04/19 01:21:42;;;;;;;;;;;11.80;54.80;;;;;;2094653;28;20003;-90
2022/04/19 01:22:43;;;;;;;;;;;11.70;54.80;;;;;;2100321;28;19980;-91
2022/04/19 01:23:43;;;;;;;;;;;11.70;54.50;;;;;;2098811;28;19992;-89
2022/04/19 01:24:44;;;;;;;;;;;11.60;54.90;;;;;;2100715;28;19912;-89
2022/04/19 01:25:44;;;;;;;;;;;11.60;55.00;;;;;;2083288;28;19952;-89
2022/04/19 01:26:45;;;;;;;;;;;11.60;55.00;;;;;;2100944;28;19905;-89
2022/04/19 01:27:46;;;;;;;;;;;11.50;55.00;;;;;;2102578;28;19916;-88
2022/04/19 01:28:47;;;;;;;;;;;11.50;55.10;;;;;;2091125;28;19980;-90
2022/04/19 01:29:48;;;;;;;;;;;11.50;55.20;;;;;;2084321;28;20296;-90
2022/04/19 01:30:52;;;;;;;;;;;11.50;55.20;;;;;;2090295;28;19979;-90
2022/04/19 01:31:53;;;;;;;;;;;11.50;55.20;;;;;;2090340;28;19920;-90
2022/04/19 01:32:54;;;;;;;;;;;11.40;55.20;;;;;;2093777;28;20248;-90
2022/04/19 01:33:56;;;;;;;;;;;11.40;55.20;;;;;;2091074;28;19967;-90
2022/04/19 01:35:05;;;;;;;;;;;11.40;55.20;;;;;;2091662;28;19920;-90
2022/04/19 01:36:09;;;;;;;;;;;11.40;55.30;;;;;;2101087;28;19946;-89
2022/04/19 01:37:09;;;;;;;;;;;11.40;55.30;;;;;;2102222;28;19943;-89
2022/04/19 01:38:10;;;;;;;;;;;11.40;55.40;;;;;;2093554;28;19916;-90
2022/04/19 01:39:11;;;;;;;;;;;11.40;55.40;;;;;;2093125;28;19924;-89
2022/04/19 01:40:18;;;;;;;;;;;11.30;55.30;;;;;;2090580;28;19944;-89
2022/04/19 01:41:18;;;;;;;;;;;11.30;55.40;;;;;;2089627;28;19917;-90
2022/04/19 01:42:19;;;;;;;;;;;11.30;55.40;;;;;;2090443;28;19913;-90
2022/04/19 01:43:19;;;;;;;;;;;11.30;55.40;;;;;;2090647;28;19939;-90
2022/04/19 01:44:20;;;;;;;;;;;11.30;55.40;;;;;;2081077;28;19964;-90
2022/04/19 01:45:28;;;;;;;;;;;11.30;55.40;;;;;;2072069;28;19922;-89
2022/04/19 01:46:28;;;;;;;;;;;11.30;55.40;;;;;;2082712;28;19913;-90
2022/04/19 01:47:29;;;;;;;;;;;11.30;55.40;;;;;;2082080;28;19917;-89
2022/04/19 01:48:30;;;;;;;;;;;11.30;55.50;;;;;;2088353;28;19992;-89
2022/04/19 01:49:30;;;;;;;;;;;11.30;55.50;;;;;;2081214;28;19917;-89
2022/04/19 01:50:31;;;;;;;;;;;11.30;55.50;;;;;;2082849;28;19975;-89
2022/04/19 01:51:31;;;;;;;;;;;11.30;55.50;;;;;;2078611;28;20347;-89
2022/04/19 01:52:32;;;;;;;;;;;11.30;55.60;;;;;;2081669;28;19909;-90
2022/04/19 01:53:32;;;;;;;;;;;11.30;55.60;;;;;;2078802;28;19957;-89
2022/04/19 01:54:34;;;;;;;;;;;11.30;55.60;;;;;;2082897;28;19923;-90
2022/04/19 01:55:34;;;;;;;;;;;11.20;55.50;;;;;;2089434;28;20345;-90
2022/04/19 01:56:35;;;;;;;;;;;11.20;55.60;;;;;;2073183;28;19937;-89
2022/04/19 01:57:35;;;;;;;;;;;11.20;55.60;;;;;;2080813;28;20047;-90
2022/04/19 01:58:37;;;;;;;;;;;11.20;55.60;;;;;;2088198;28;19924;-90
2022/04/19 01:59:37;;;;;;;;;;;11.20;55.70;;;;;;2077344;28;19917;-90
2022/04/19 02:00:38;;;;;;;;;;;11.20;55.60;;;;;;2072080;28;19917;-89
2022/04/19 02:01:38;;;;;;;;;;;11.20;55.60;;;;;;2082255;28;20395;-90
2022/04/19 02:02:39;;;;;;;;;;;11.20;55.70;;;;;;2097831;28;19931;-89
2022/04/19 02:03:40;;;;;;;;;;;11.20;55.70;;;;;;2078130;28;19925;-90
2022/04/19 02:04:41;;;;;;;;;;;11.20;55.70;;;;;;2081272;28;19917;-90
2022/04/19 02:05:42;;;;;;;;;;;11.20;55.70;;;;;;2083543;28;19913;-88
2022/04/19 02:06:43;;;;;;;;;;;11.20;55.80;;;;;;2082875;28;20000;-90
2022/04/19 02:07:44;;;;;;;;;;;11.10;55.70;;;;;;2087444;28;20103;-90
2022/04/19 02:08:45;;;;;;;;;;;11.10;55.70;;;;;;2090160;28;19930;-90
2022/04/19 02:09:45;;;;;;;;;;;11.10;56.30;;;;;;2096740;28;19920;-90
2022/04/19 02:10:46;;;;;;;;;;;11.10;55.80;;;;;;2093916;28;19925;-91
2022/04/19 02:11:46;;;;;;;;;;;11.10;55.70;;;;;;2092834;28;19971;-90
2022/04/19 02:12:47;;;;;;;;;;;11.10;55.70;;;;;;2092598;28;19927;-90
2022/04/19 02:13:47;;;;;;;;;;;11.10;55.70;;;;;;2088732;28;19954;-91
2022/04/19 02:14:48;;;;;;;;;;;11.10;55.80;;;;;;2079668;28;19992;-90
2022/04/19 02:15:48;;;;;;;;;;;11.10;55.80;;;;;;2080753;28;19909;-90
2022/04/19 02:16:53;;;;;;;;;;;11.10;56.40;;;;;;2084827;28;19917;-91
2022/04/19 02:17:53;;;;;;;;;;;11.10;55.80;;;;;;2080985;28;20367;-90
2022/04/19 02:18:54;;;;;;;;;;;11.10;55.80;;;;;;2091207;28;19917;-90
2022/04/19 02:19:59;;;;;;;;;;;11.10;55.90;;;;;;2087949;28;19988;-90
2022/04/19 02:21:00;;;;;;;;;;;11.00;55.80;;;;;;2098998;28;19909;-90
2022/04/19 02:22:01;;;;;;;;;;;11.00;55.80;;;;;;2099698;28;19917;-90
2022/04/19 02:23:02;;;;;;;;;;;11.10;55.90;;;;;;2090219;28;20015;-90
2022/04/19 02:24:02;;;;;;;;;;;11.10;55.90;;;;;;2080942;28;19918;-90
2022/04/19 02:25:03;;;;;;;;;;;11.10;55.90;;;;;;2078854;28;19981;-89
2022/04/19 02:26:04;;;;;;;;;;;11.10;55.80;;;;;;2084589;28;20398;-90
2022/04/19 02:27:05;;;;;;;;;;;11.10;55.80;;;;;;2090849;28;19917;-90
2022/04/19 02:28:07;;;;;;;;;;;11.10;55.80;;;;;;2078617;28;19924;-89
2022/04/19 02:29:08;;;;;;;;;;;11.10;55.90;;;;;;2098128;28;19923;-90
2022/04/19 02:30:13;;;;;;;;;;;11.00;55.90;;;;;;2093082;28;19935;-90
2022/04/19 02:31:14;;;;;;;;;;;11.00;55.90;;;;;;2090298;28;19963;-89
2022/04/19 02:32:14;;;;;;;;;;;11.00;56.00;;;;;;2088482;28;19968;-90
2022/04/19 02:33:15;;;;;;;;;;;11.00;55.90;;;;;;2074161;28;19918;-89
2022/04/19 02:34:18;;;;;;;;;;;11.00;56.00;;;;;;2076936;28;19921;-90
2022/04/19 02:35:20;;;;;;;;;;;11.00;56.00;;;;;;2098821;28;19913;-89
2022/04/19 02:36:21;;;;;;;;;;;10.90;56.00;;;;;;2091212;28;19948;-89
2022/04/19 02:37:21;;;;;;;;;;;10.90;56.10;;;;;;2090836;28;19931;-90
2022/04/19 02:38:22;;;;;;;;;;;10.90;56.10;;;;;;2089710;28;20287;-90
2022/04/19 02:39:23;;;;;;;;;;;10.90;56.20;;;;;;2086982;28;19916;-90
2022/04/19 02:40:25;;;;;;;;;;;10.90;56.20;;;;;;2095861;28;19940;-90
2022/04/19 02:41:26;;;;;;;;;;;10.80;56.30;;;;;;2093488;28;19912;-90
2022/04/19 02:42:26;;;;;;;;;;;10.80;56.30;;;;;;2095230;28;20019;-90
2022/04/19 02:43:27;;;;;;;;;;;10.80;56.30;;;;;;2097166;28;19916;-90
2022/04/19 02:44:27;;;;;;;;;;;10.80;56.40;;;;;;2097282;28;20397;-89
2022/04/19 02:45:28;;;;;;;;;;;10.70;56.40;;;;;;2097979;28;19984;-89
2022/04/19 02:46:29;;;;;;;;;;;10.70;56.40;;;;;;2087379;28;19917;-90
2022/04/19 02:47:30;;;;;;;;;;;10.70;56.40;;;;;;2094559;28;20357;-90
2022/04/19 02:48:31;;;;;;;;;;;10.70;56.50;;;;;;2098628;28;19959;-91
2022/04/19 02:49:32;;;;;;;;;;;10.70;56.50;;;;;;2085410;28;19924;-90
2022/04/19 02:50:33;;;;;;;;;;;10.70;56.50;;;;;;2082203;28;19961;-89
2022/04/19 02:51:34;;;;;;;;;;;10.70;56.60;;;;;;2091440;28;20059;-89
2022/04/19 02:52:35;;;;;;;;;;;10.60;56.60;;;;;;2095281;28;20298;-89
2022/04/19 02:53:36;;;;;;;;;;;10.60;56.60;;;;;;2099278;28;19917;-90
2022/04/19 02:54:37;;;;;;;;;;;10.60;56.60;;;;;;2097295;28;19958;-89
2022/04/19 02:55:38;;;;;;;;;;;10.60;56.60;;;;;;2094323;28;19916;-89
2022/04/19 02:56:38;;;;;;;;;;;10.60;56.60;;;;;;2090900;28;20354;-89
2022/04/19 02:57:39;;;;;;;;;;;10.60;56.60;;;;;;2082331;28;20358;-90
2022/04/19 02:58:39;;;;;;;;;;;10.60;56.60;;;;;;2080293;28;20201;-90
2022/04/19 02:59:43;;;;;;;;;;;10.60;56.60;;;;;;2086680;28;19918;-90
2022/04/19 03:00:43;;;;;;;;;;;10.60;56.60;;;;;;2088321;28;19924;-90
2022/04/19 03:01:44;;;;;;;;;;;10.60;56.60;;;;;;2091658;28;19913;-90
2022/04/19 03:02:44;;;;;;;;;;;10.60;56.60;;;;;;2088463;28;20397;-90
2022/04/19 03:03:45;;;;;;;;;;;10.50;56.50;;;;;;2082857;28;19944;-90
2022/04/19 03:04:46;;;;;;;;;;;10.60;57.20;;;;;;2074966;28;20000;-90
2022/04/19 03:05:48;;;;;;;;;;;10.60;56.60;;;;;;2090621;28;20049;-89
2022/04/19 03:06:48;;;;;;;;;;;10.60;56.60;;;;;;2086434;28;20280;-89
2022/04/19 03:07:49;;;;;;;;;;;10.60;57.30;;;;;;2090442;28;19921;-90
2022/04/19 03:08:49;;;;;;;;;;;10.50;56.60;;;;;;2087066;28;19963;-90
2022/04/19 03:09:50;;;;;;;;;;;10.60;56.70;;;;;;2095595;28;19924;-88
2022/04/19 03:10:51;;;;;;;;;;;10.50;56.60;;;;;;2080458;28;19921;-89
2022/04/19 03:11:51;;;;;;;;;;;10.50;56.60;;;;;;2098358;28;19931;-90
2022/04/19 03:12:52;;;;;;;;;;;10.50;56.60;;;;;;2084853;28;20310;-90
2022/04/19 03:13:52;;;;;;;;;;;10.50;56.60;;;;;;2089298;28;19939;-89
2022/04/19 03:14:53;;;;;;;;;;;10.50;56.60;;;;;;2103522;28;19917;-89
2022/04/19 03:15:54;;;;;;;;;;;10.50;56.60;;;;;;2090321;28;19913;-90
2022/04/19 03:16:54;;;;;;;;;;;10.50;56.70;;;;;;2090663;28;20011;-90
2022/04/19 03:17:55;;;;;;;;;;;10.50;56.70;;;;;;2074580;28;20363;-89
2022/04/19 03:18:55;;;;;;;;;;;10.50;56.70;;;;;;2077812;28;20368;-89
2022/04/19 03:19:56;;;;;;;;;;;10.50;56.70;;;;;;2079390;28;19943;-90
2022/04/19 03:20:58;;;;;;;;;;;10.50;56.70;;;;;;2074482;28;19917;-89
2022/04/19 03:21:58;;;;;;;;;;;10.50;56.80;;;;;;2078717;28;19975;-89
2022/04/19 03:28:15;;;;;;;;;;;10.40;56.80;;;;;;2097166;28;19917;-89
2022/04/19 03:29:15;;;;;;;;;;;10.40;56.80;;;;;;2084275;28;20376;-89
2022/04/19 03:30:16;;;;;;;;;;;10.40;56.80;;;;;;2090319;28;19952;-89
2022/04/19 03:31:16;;;;;;;;;;;10.40;56.80;;;;;;2087225;28;19921;-90
2022/04/19 03:32:19;;;;;;;;;;;10.40;56.80;;;;;;2067769;28;20012;-89
2022/04/19 03:33:19;;;;;;;;;;;10.40;56.80;;;;;;2070902;28;19918;-90
2022/04/19 03:34:20;;;;;;;;;;;10.40;56.90;;;;;;2077682;28;19992;-90
2022/04/19 03:35:22;;;;;;;;;;;10.30;56.90;;;;;;2074111;28;20239;-90
2022/04/19 03:36:22;;;;;;;;;;;10.40;56.90;;;;;;2082722;28;20422;-90
2022/04/19 03:37:23;;;;;;;;;;;10.30;56.90;;;;;;2092857;28;19925;-90
2022/04/19 03:38:23;;;;;;;;;;;10.40;56.90;;;;;;2085827;28;20387;-90
2022/04/19 03:39:24;;;;;;;;;;;10.40;57.00;;;;;;2081040;28;19987;-90
2022/04/19 03:40:25;;;;;;;;;;;10.40;57.00;;;;;;2099086;28;20007;-90
2022/04/19 03:41:25;;;;;;;;;;;10.30;57.00;;;;;;2096320;28;21227;-90
2022/04/19 03:42:26;;;;;;;;;;;10.30;57.00;;;;;;2089874;28;19924;-90
2022/04/19 03:43:27;;;;;;;;;;;10.30;57.10;;;;;;2098348;28;19917;-89
2022/04/19 03:44:29;;;;;;;;;;;10.20;57.00;;;;;;2099237;28;19913;-89
2022/04/19 03:45:30;;;;;;;;;;;10.30;57.10;;;;;;2093708;28;19916;-90
2022/04/19 03:46:30;;;;;;;;;;;10.20;57.00;;;;;;2098088;28;19920;-90
2022/04/19 03:47:34;;;;;;;;;;;10.30;57.10;;;;;;2088298;28;19923;-89
2022/04/19 03:48:35;;;;;;;;;;;10.30;57.10;;;;;;2098064;28;19952;-89
2022/04/19 03:49:36;;;;;;;;;;;10.20;57.10;;;;;;2096536;28;19978;-90
2022/04/19 03:50:37;;;;;;;;;;;10.20;57.10;;;;;;2092992;28;20457;-90
2022/04/19 03:51:38;;;;;;;;;;;10.20;57.10;;;;;;2096379;28;19954;-90
2022/04/19 03:52:38;;;;;;;;;;;10.20;57.20;;;;;;2097753;28;19913;-89
2022/04/19 03:53:39;;;;;;;;;;;10.20;57.20;;;;;;2098025;28;20394;-89
2022/04/19 03:54:39;;;;;;;;;;;10.20;57.10;;;;;;2082315;28;19921;-89
2022/04/19 03:55:39;;;;;;;;;;;10.20;57.20;;;;;;2082025;28;20007;-90
2022/04/19 03:56:41;;;;;;;;;;;10.20;57.20;;;;;;2082604;28;19917;-89
2022/04/19 03:57:41;;;;;;;;;;;10.20;57.20;;;;;;2082059;28;19917;-90
2022/04/19 03:58:42;;;;;;;;;;;10.10;57.20;;;;;;2080569;28;19992;-90
2022/04/19 03:59:42;;;;;;;;;;;10.10;57.20;;;;;;2089544;28;20406;-90
2022/04/19 04:00:43;;;;;;;;;;;10.10;57.20;;;;;;2080545;28;19918;-90
2022/04/19 04:01:43;;;;;;;;;;;10.10;57.20;;;;;;2074417;28;19965;-89
2022/04/19 04:02:44;;;;;;;;;;;10.10;57.30;;;;;;2087147;28;19952;-90
2022/04/19 04:03:47;;;;;;;;;;;10.10;57.30;;;;;;2098428;28;19917;-90
2022/04/19 04:04:47;;;;;;;;;;;10.10;57.30;;;;;;2090797;28;19931;-90
2022/04/19 04:05:49;;;;;;;;;;;10.10;57.40;;;;;;2090508;28;19921;-89
2022/04/19 04:06:49;;;;;;;;;;;10.10;57.40;;;;;;2094774;28;20447;-90
2022/04/19 04:07:50;;;;;;;;;;;10.10;57.40;;;;;;2093425;28;19920;-90
2022/04/19 04:08:51;;;;;;;;;;;10.10;57.40;;;;;;2094143;28;19924;-90
2022/04/19 04:09:51;;;;;;;;;;;10.10;57.40;;;;;;2076579;28;19924;-89
2022/04/19 04:10:52;;;;;;;;;;;10.10;57.40;;;;;;2075130;28;20343;-90
2022/04/19 04:11:53;;;;;;;;;;;10.10;57.40;;;;;;2088572;28;19968;-90
2022/04/19 04:12:53;;;;;;;;;;;10.10;57.40;;;;;;2093189;28;20377;-90
2022/04/19 04:13:54;;;;;;;;;;;10.10;57.40;;;;;;2089433;28;19917;-90
2022/04/19 04:14:54;;;;;;;;;;;10.10;57.40;;;;;;2086314;28;19916;-90
2022/04/19 04:15:55;;;;;;;;;;;10.10;57.40;;;;;;2090165;28;19995;-90
2022/04/19 04:16:55;;;;;;;;;;;10.10;57.40;;;;;;2094662;28;19948;-90
2022/04/19 04:17:56;;;;;;;;;;;10.10;57.40;;;;;;2090170;28;20379;-90
2022/04/19 04:18:56;;;;;;;;;;;10.10;57.40;;;;;;2088871;28;19931;-90
2022/04/19 04:19:57;;;;;;;;;;;10.10;57.40;;;;;;2094382;28;19921;-90
2022/04/19 04:20:58;;;;;;;;;;;10.10;57.40;;;;;;2093509;28;20074;-90
2022/04/19 04:21:58;;;;;;;;;;;10.10;57.40;;;;;;2089362;28;20292;-90
2022/04/19 04:22:59;;;;;;;;;;;10.10;57.40;;;;;;2080927;28;19999;-90
2022/04/19 04:23:59;;;;;;;;;;;10.10;57.40;;;;;;2093697;28;20304;-90
2022/04/19 04:25:00;;;;;;;;;;;10.10;57.40;;;;;;2093179;28;20389;-90
2022/04/19 04:26:00;;;;;;;;;;;10.10;57.30;;;;;;2082100;28;19921;-90
2022/04/19 04:27:01;;;;;;;;;;;10.10;57.30;;;;;;2079064;28;19924;-90
2022/04/19 04:28:01;;;;;;;;;;;10.10;57.30;;;;;;2086203;28;19916;-90
2022/04/19 04:29:02;;;;;;;;;;;10.10;57.90;;;;;;2096584;28;19913;-90
2022/04/19 04:30:03;;;;;;;;;;;10.10;57.30;;;;;;2090267;28;20429;-90
2022/04/19 04:31:03;;;;;;;;;;;10.10;57.30;;;;;;2085072;28;20481;-90
2022/04/19 04:32:04;;;;;;;;;;;10.10;57.30;;;;;;2089031;28;20386;-90
2022/04/19 04:33:05;;;;;;;;;;;10.10;57.30;;;;;;2087334;28;20031;-89
2022/04/19 04:34:06;;;;;;;;;;;10.10;57.30;;;;;;2088434;28;20023;-90
2022/04/19 04:35:08;;;;;;;;;;;10.10;57.20;;;;;;2097566;28;19919;-89
2022/04/19 04:36:10;;;;;;;;;;;10.10;57.20;;;;;;2094824;28;19917;-89
2022/04/19 04:37:11;;;;;;;;;;;10.20;57.20;;;;;;2094692;28;19920;-89
2022/04/19 04:38:11;;;;;;;;;;;10.20;57.20;;;;;;2092205;28;19940;-89
2022/04/19 04:39:12;;;;;;;;;;;10.20;57.10;;;;;;2089646;28;19939;-90
2022/04/19 04:40:12;;;;;;;;;;;10.30;57.10;;;;;;2086522;28;20294;-90
2022/04/19 04:41:13;;;;;;;;;;;10.30;57.00;;;;;;2092669;28;20023;-90
2022/04/19 04:42:13;;;;;;;;;;;10.30;56.90;;;;;;2092366;28;20370;-90
2022/04/19 04:43:14;;;;;;;;;;;10.30;56.90;;;;;;2089544;28;19924;-90
2022/04/19 04:44:14;;;;;;;;;;;10.30;56.80;;;;;;2086670;28;19921;-88
2022/04/19 04:45:15;;;;;;;;;;;10.40;56.80;;;;;;2104316;28;19916;-89
2022/04/19 04:50:13;;;;;;;;;;;10.40;56.80;;;;;;2096045;28;20267;-89
2022/04/19 04:51:14;;;;;;;;;;;10.40;56.70;;;;;;2093689;28;19966;-89
2022/04/19 04:52:15;;;;;;;;;;;10.40;56.70;;;;;;2097569;28;19993;-90
2022/04/19 04:53:15;;;;;;;;;;;10.40;56.60;;;;;;2093732;28;19920;-89
2022/04/19 04:54:16;;;;;;;;;;;10.40;56.60;;;;;;2097882;28;19916;-89
2022/04/19 04:55:16;;;;;;;;;;;10.50;56.70;;;;;;2085134;28;20295;-89
2022/04/19 04:56:17;;;;;;;;;;;10.50;56.70;;;;;;2090434;28;19917;-89
2022/04/19 04:57:18;;;;;;;;;;;10.50;56.60;;;;;;2091606;28;19913;-88
2022/04/19 04:58:18;;;;;;;;;;;10.50;56.60;;;;;;2094008;28;19951;-86
2022/04/19 04:59:19;;;;;;;;;;;10.50;56.60;;;;;;2099325;28;19923;-86
2022/04/19 05:00:19;;;;;;;;;;;10.50;56.60;;;;;;2097396;28;19983;-88
2022/04/19 05:01:20;;;;;;;;;;;10.50;56.60;;;;;;2094706;28;19956;-88
2022/04/19 05:02:23;;;;;;;;;;;10.50;56.60;;;;;;2083522;28;19944;-88
2022/04/19 05:03:24;;;;;;;;;;;10.50;56.60;;;;;;2078586;28;19964;-88
2022/04/19 05:04:24;;;;;;;;;;;10.50;56.60;;;;;;2082366;28;19925;-89
2022/04/19 05:05:25;;;;;;;;;;;10.60;56.70;;;;;;2081447;28;20442;-90
2022/04/19 05:06:25;;;;;;;;;;;10.50;56.60;;;;;;2093204;28;20458;-89
2022/04/19 05:07:26;;;;;;;;;;;10.60;56.80;;;;;;2091769;28;20390;-89
2022/04/19 05:08:26;;;;;;;;;;;10.50;56.70;;;;;;2073778;28;20439;-86
2022/04/19 05:09:27;;;;;;;;;;;10.50;56.80;;;;;;2084760;28;19913;-87
2022/04/19 05:10:28;;;;;;;;;;;10.50;56.80;;;;;;2090266;28;19921;-89
2022/04/19 05:11:28;;;;;;;;;;;10.50;56.90;;;;;;2079401;28;19931;-87
2022/04/19 05:12:29;;;;;;;;;;;10.50;56.90;;;;;;2079481;28;20344;-87
2022/04/19 05:13:29;;;;;;;;;;;10.50;56.90;;;;;;2094057;28;19921;-89
2022/04/19 05:14:30;;;;;;;;;;;10.60;56.90;;;;;;2089949;28;20398;-88
2022/04/19 05:15:30;;;;;;;;;;;10.50;56.80;;;;;;2088484;28;20435;-89
2022/04/19 05:16:31;;;;;;;;;;;10.60;56.80;;;;;;2080051;28;19925;-89
2022/04/19 05:17:31;;;;;;;;;;;10.60;56.80;;;;;;2080725;28;20395;-88
2022/04/19 05:18:32;;;;;;;;;;;10.60;56.70;;;;;;2090027;28;19968;-88
2022/04/19 05:19:32;;;;;;;;;;;10.70;56.70;;;;;;2097952;28;19951;-88
2022/04/19 05:20:33;;;;;;;;;;;10.70;56.60;;;;;;2087444;28;19917;-89
2022/04/19 05:21:33;;;;;;;;;;;10.70;56.60;;;;;;2089641;28;19959;-88
2022/04/19 05:22:34;;;;;;;;;;;10.70;56.60;;;;;;2089684;28;19916;-88
2022/04/19 05:23:34;;;;;;;;;;;10.80;56.60;;;;;;2089324;28;19913;-89
2022/04/19 05:24:35;;;;;;;;;;;10.80;56.50;;;;;;2089529;28;20395;-89
2022/04/19 05:25:36;;;;;;;;;;;10.80;56.50;;;;;;2081968;28;19917;-89
2022/04/19 05:26:36;;;;;;;;;;;10.80;56.40;;;;;;2090318;28;20489;-89
2022/04/19 05:27:37;;;;;;;;;;;10.80;56.40;;;;;;2096754;28;19917;-89
2022/04/19 05:28:38;;;;;;;;;;;10.90;56.40;;;;;;2077969;28;20295;-89
2022/04/19 05:29:38;;;;;;;;;;;10.90;56.30;;;;;;2087970;28;20008;-88
2022/04/19 05:30:39;;;;;;;;;;;10.90;56.30;;;;;;2077771;28;19928;-89
2022/04/19 05:31:39;;;;;;;;;;;11.00;56.20;;;;;;2081551;28;19921;-89
2022/04/19 05:32:40;;;;;;;;;;;11.00;56.20;;;;;;2081709;28;19913;-89
2022/04/19 05:33:41;;;;;;;;;;;11.10;56.20;;;;;;2089888;28;20375;-89
2022/04/19 05:34:41;;;;;;;;;;;11.10;56.10;;;;;;2091486;28;19968;-89
2022/04/19 05:35:42;;;;;;;;;;;11.20;56.10;;;;;;2090724;28;19912;-89
2022/04/19 05:36:42;;;;;;;;;;;11.20;56.00;;;;;;2092639;28;19982;-89
2022/04/19 05:37:43;;;;;;;;;;;11.20;56.00;;;;;;2090106;28;19928;-89
2022/04/19 05:38:43;;;;;;;;;;;11.30;55.90;;;;;;2089862;28;19996;-88
2022/04/19 05:39:44;;;;;;;;;;;11.30;55.80;;;;;;2089578;28;19917;-89
2022/04/19 05:40:44;;;;;;;;;;;11.30;55.80;;;;;;2089504;28;20386;-86
2022/04/19 05:41:45;;;;;;;;;;;11.40;55.80;;;;;;2097664;28;19912;-89
2022/04/19 05:42:45;;;;;;;;;;;11.50;55.80;;;;;;2095926;28;20013;-88
2022/04/19 05:43:47;;;;;;;;;;;11.50;55.70;;;;;;2080794;28;19970;-89
2022/04/19 05:44:47;;;;;;;;;;;11.50;55.60;;;;;;2089951;28;19993;-89
2022/04/19 05:45:48;;;;;;;;;;;11.60;55.50;;;;;;2106472;28;20007;-89
2022/04/19 05:46:50;;;;;;;;;;;11.70;55.50;;;;;;2105658;28;19951;-89
2022/04/19 05:47:50;;;;;;;;;;;11.70;55.40;;;;;;2089171;28;19937;-87
2022/04/19 05:48:52;;;;;;;;;;;11.80;55.30;;;;;;2077562;28;19993;-88
2022/04/19 05:49:52;;;;;;;;;;;11.80;55.30;;;;;;2073748;28;19925;-88
2022/04/19 05:50:53;;;;;;;;;;;11.90;55.20;;;;;;2078951;28;20035;-89
2022/04/19 05:51:54;;;;;;;;;;;11.90;55.20;;;;;;2078656;28;19925;-88
2022/04/19 05:52:54;;;;;;;;;;;12.00;55.10;;;;;;2081438;28;20283;-88
2022/04/19 05:53:55;;;;;;;;;;;12.00;55.00;;;;;;2091777;28;19918;-88
2022/04/19 05:54:55;;;;;;;;;;;12.00;54.90;;;;;;2097997;28;19995;-88
2022/04/19 05:55:56;;;;;;;;;;;12.10;54.90;;;;;;2089616;28;19955;-88
2022/04/19 05:56:56;;;;;;;;;;;12.10;54.80;;;;;;2089893;28;19936;-88
2022/04/19 05:57:57;;;;;;;;;;;12.20;55.30;;;;;;2092656;28;19921;-88
2022/04/19 05:58:57;;;;;;;;;;;12.20;54.60;;;;;;2097739;28;19958;-88
2022/04/19 05:59:58;;;;;;;;;;;12.20;54.50;;;;;;2106014;28;20325;-88
2022/04/19 06:01:01;;;;;;;;;;;12.30;54.50;;;;;;2090215;28;19919;-88
2022/04/19 06:04:52;;;;;;;;;;;12.40;54.40;;;;;;2090017;28;20386;-88
2022/04/19 06:05:53;;;;;;;;;;;12.50;54.30;;;;;;2090343;28;19982;-88
2022/04/19 06:06:53;;;;;;;;;;;12.50;54.30;;;;;;2094441;28;20022;-88
2022/04/19 06:07:54;;;;;;;;;;;12.50;54.20;;;;;;2097791;28;20386;-88